»·PEaware :: N12PL KTEX-KTRM

N12PL :: KTEX-KTRM

FLIGHT INFORMATION

Flight Status: Arrived
Operator: Privately registered:
United States
More flights under this callsign
Pilot: Ethan S. (29221)
Aircraft: CANADAIR CL-600 CHALLENGER
(CL60)
More flights by this aircraft type
Origin: KTEX Telluride Regl
United States
Destination: KTRM Desert Resorts Regl
United States
More flights between these airports :: More routes between these airports
Route: ETL DVC EED CLOWD1
File this flight plan on PilotEdge
Remarks:
Altitude:
(Current/Filed)
38,000ft
Speed:
(Current/Filed)
465kts
Departed: 05-Oct-23 09:30 AM
Arrived: 05-Oct-23 10:44 AM
Distance/Time
Traveled:
477nm/1:14
Distance/Time
To Go:
Arrived

Flight Plot

Page will automatically refresh every two minutes.

Flight plan parsing failed; only flown route is shown


Map Options




Map Legend


Flown Route
Filed Route
Departure Airport
Arrival Airport
Navaid (VOR, NDB)
Fix

Horizontal Profiles

Position Reports

Time Latitude Longitude Heading Altitude Ground
Speed
05-Oct-23 09:05 37.954128 -107.902143 103 9064ft 0kts
05-Oct-23 09:06 37.954128 -107.902143 103 9064ft 0kts
05-Oct-23 09:07 37.954128 -107.902143 103 9064ft 0kts
05-Oct-23 09:08 37.954128 -107.902143 103 9064ft 0kts
05-Oct-23 09:09 37.954128 -107.902143 103 9064ft 0kts
05-Oct-23 09:10 37.954128 -107.902143 103 9064ft 0kts
05-Oct-23 09:11 37.954128 -107.902143 103 9064ft 0kts
05-Oct-23 09:12 37.954128 -107.902143 103 9064ft 0kts
05-Oct-23 09:13 37.954128 -107.902143 103 9064ft 0kts
05-Oct-23 09:14 37.954128 -107.902143 103 9064ft 0kts
05-Oct-23 09:14 37.954128 -107.902143 103 9064ft 0kts
05-Oct-23 09:16 37.954128 -107.902143 103 9064ft 0kts
05-Oct-23 09:17 37.954128 -107.902143 103 9064ft 0kts
05-Oct-23 09:18 37.954128 -107.902143 103 9064ft 0kts
05-Oct-23 09:19 37.954128 -107.902143 103 9064ft 0kts
05-Oct-23 09:19 37.954128 -107.902143 103 9064ft 0kts
05-Oct-23 09:20 37.954128 -107.902143 103 9064ft 0kts
05-Oct-23 09:21 37.954128 -107.902143 103 9064ft 0kts
05-Oct-23 09:23 37.954128 -107.902143 103 9064ft 0kts
05-Oct-23 09:24 37.954128 -107.902143 104 9064ft 0kts
05-Oct-23 09:24 37.954128 -107.902143 104 9064ft 0kts
05-Oct-23 09:25 37.954128 -107.902143 104 9064ft 0kts
05-Oct-23 09:26 37.953592 -107.901548 138 9067ft 5kts
05-Oct-23 09:27 37.952671 -107.897916 105 9084ft 12kts
05-Oct-23 09:29 37.951414 -107.897360 284 9085ft 21kts
05-Oct-23 09:29 37.959857 -107.937322 286 10199ft 199kts
05-Oct-23 09:30 37.982370 -108.026258 288 12583ft 326kts
05-Oct-23 09:31 38.010658 -108.139275 288 16886ft 347kts
05-Oct-23 09:32 38.035211 -108.259111 268 20763ft 364kts
05-Oct-23 09:33 37.999144 -108.381179 248 24049ft 382kts
05-Oct-23 09:34 37.955989 -108.506308 249 24294ft 384kts
05-Oct-23 09:35 37.912513 -108.632657 249 26499ft 395kts
05-Oct-23 09:36 37.868100 -108.761166 248 29120ft 404kts
05-Oct-23 09:37 37.822319 -108.893113 249 31132ft 416kts
05-Oct-23 09:38 37.765157 -109.020879 240 33350ft 415kts
05-Oct-23 09:39 37.703421 -109.141587 240 35429ft 406kts
05-Oct-23 09:40 37.642656 -109.260396 240 36985ft 403kts
05-Oct-23 09:41 37.582052 -109.378706 240 38232ft 402kts
05-Oct-23 09:42 37.519906 -109.499750 240 38446ft 422kts
05-Oct-23 09:43 37.454747 -109.626249 240 38452ft 440kts
05-Oct-23 09:44 37.387332 -109.756631 239 38469ft 445kts
05-Oct-23 09:45 37.320000 -109.886322 239 38429ft 443kts
05-Oct-23 09:46 37.252639 -110.015558 239 38425ft 442kts
05-Oct-23 09:47 37.185146 -110.144574 239 38438ft 442kts
05-Oct-23 09:48 37.117600 -110.273208 239 38433ft 443kts
05-Oct-23 09:49 37.049850 -110.401705 239 38446ft 442kts
05-Oct-23 09:50 36.981840 -110.530248 238 38454ft 443kts
05-Oct-23 09:51 36.913654 -110.658599 238 38392ft 443kts
05-Oct-23 09:52 36.849349 -110.779191 238 38372ft 442kts
05-Oct-23 09:53 36.780973 -110.906958 238 38365ft 444kts
05-Oct-23 09:54 36.712529 -111.034383 238 38365ft 442kts
05-Oct-23 09:55 36.643980 -111.161511 238 38409ft 442kts
05-Oct-23 09:56 36.575124 -111.288732 238 38380ft 445kts
05-Oct-23 09:57 36.506045 -111.415905 238 38371ft 444kts
05-Oct-23 09:58 36.436996 -111.542555 237 38380ft 445kts
05-Oct-23 09:59 36.367354 -111.669811 237 38376ft 445kts
05-Oct-23 10:00 36.297681 -111.796639 237 38403ft 445kts
05-Oct-23 10:01 36.227798 -111.923385 237 38414ft 446kts
05-Oct-23 10:02 36.157787 -112.049916 237 38362ft 448kts
05-Oct-23 10:03 36.087516 -112.176436 237 38340ft 446kts
05-Oct-23 10:04 36.017015 -112.302878 237 38335ft 446kts
05-Oct-23 10:05 35.946475 -112.429014 236 38335ft 448kts
05-Oct-23 10:06 35.876315 -112.553969 236 38337ft 448kts
05-Oct-23 10:07 35.805239 -112.680084 236 38339ft 450kts
05-Oct-23 10:08 35.733495 -112.806973 235 38284ft 451kts
05-Oct-23 10:09 35.662190 -112.932575 235 38338ft 449kts
05-Oct-23 10:10 35.590455 -113.058516 235 38327ft 452kts
05-Oct-23 10:11 35.518150 -113.184997 235 38297ft 453kts
05-Oct-23 10:12 35.445339 -113.311877 235 38242ft 454kts
05-Oct-23 10:13 35.372605 -113.438203 235 38213ft 455kts
05-Oct-23 10:14 35.299483 -113.564739 235 38251ft 456kts
05-Oct-23 10:15 35.225961 -113.691549 235 38265ft 457kts
05-Oct-23 10:16 35.152145 -113.818477 234 38246ft 459kts
05-Oct-23 10:17 35.077827 -113.945487 234 38240ft 460kts
05-Oct-23 10:18 35.004539 -114.070328 233 38220ft 460kts
05-Oct-23 10:19 34.929924 -114.197042 233 38206ft 461kts
05-Oct-23 10:20 34.854793 -114.324258 233 38235ft 463kts
05-Oct-23 10:21 34.779389 -114.451516 233 38208ft 463kts
05-Oct-23 10:22 34.699912 -114.574758 230 38189ft 463kts
05-Oct-23 10:23 34.619214 -114.696462 230 37524ft 460kts
05-Oct-23 10:24 34.540868 -114.814339 229 35373ft 442kts
05-Oct-23 10:25 34.464379 -114.929058 229 33218ft 441kts
05-Oct-23 10:26 34.386737 -115.045116 229 30923ft 447kts
05-Oct-23 10:27 34.310023 -115.159493 229 28664ft 430kts
05-Oct-23 10:28 34.235970 -115.269577 229 26218ft 415kts
05-Oct-23 10:29 34.164908 -115.374893 229 23478ft 394kts
05-Oct-23 10:30 34.097913 -115.473862 229 20664ft 375kts
05-Oct-23 10:31 34.032340 -115.570484 229 18651ft 367kts
05-Oct-23 10:32 33.968514 -115.664323 229 16632ft 358kts
05-Oct-23 10:33 33.914381 -115.762527 260 14643ft 353kts
05-Oct-23 10:34 33.906510 -115.879881 265 12661ft 343kts
05-Oct-23 10:35 33.865638 -115.969085 213 11679ft 290kts
05-Oct-23 10:36 33.803332 -116.022363 214 9817ft 274kts
05-Oct-23 10:37 33.744944 -116.072646 218 7245ft 234kts
05-Oct-23 10:38 33.707611 -116.125084 231 4770ft 179kts
05-Oct-23 10:39 33.677235 -116.168618 231 2271ft 158kts
05-Oct-23 10:40 33.641653 -116.190495 180 1386ft 150kts
05-Oct-23 10:41 33.600551 -116.188696 162 907ft 149kts
05-Oct-23 10:42 33.602519 -116.156442 359 162ft 127kts
05-Oct-23 10:43 33.628164 -116.156411 0 -117ft 40kts
05-Oct-23 10:44 33.631534 -116.157721 359 -114ft 14kts
05-Oct-23 10:45 33.636387 -116.157719 0 -109ft 21kts
05-Oct-23 10:46 33.638530 -116.158419 270 -107ft 0kts
05-Oct-23 10:47 33.638530 -116.158418 270 -107ft 0kts
05-Oct-23 10:48 33.638530 -116.158418 270 -107ft 0kts
05-Oct-23 10:49 33.638530 -116.158418 270 -107ft 0kts
05-Oct-23 10:50 33.638530 -116.158418 270 -107ft 0kts
05-Oct-23 10:51 33.638530 -116.158418 270 -107ft 0kts
05-Oct-23 10:52 33.638530 -116.158418 270 -107ft 0kts
05-Oct-23 10:53 33.638530 -116.158418 270 -107ft 0kts

Navigation Log

Ident Type
Flight plan parsing failed, navigation log unavailable